createdAt,value
2019-04-26T00:00:34.345Z,12.16
2019-04-26T00:01:34.325Z,12.28
2019-04-26T00:02:34.324Z,12.17
2019-04-26T00:03:34.296Z,12.14
2019-04-26T00:04:34.289Z,12.21
2019-04-26T00:05:36.173Z,12.10
2019-04-26T00:06:34.272Z,12.09
2019-04-26T00:07:34.248Z,12.19
2019-04-26T00:08:34.259Z,12.16
2019-04-26T00:09:34.228Z,12.13
2019-04-26T00:10:34.224Z,12.13
2019-04-26T00:11:34.254Z,12.13
2019-04-26T00:12:34.192Z,12.17
2019-04-26T00:13:34.187Z,12.13
2019-04-26T00:14:34.185Z,12.24
2019-04-26T00:15:34.161Z,12.27
2019-04-26T00:16:34.153Z,12.31
2019-04-26T00:17:34.162Z,12.17
2019-04-26T00:18:34.140Z,12.31
2019-04-26T00:19:34.124Z,12.34
2019-04-26T00:20:34.106Z,12.34
2019-04-26T00:21:34.098Z,12.34
2019-04-26T00:22:34.368Z,12.21
2019-04-26T00:23:34.080Z,12.27
2019-04-26T00:24:34.085Z,12.21
2019-04-26T00:25:34.055Z,12.16
2019-04-26T00:26:34.058Z,12.14
2019-04-26T00:27:34.052Z,12.13
2019-04-26T00:28:34.017Z,12.19
2019-04-26T00:29:34.009Z,12.14
2019-04-26T00:30:34.000Z,12.10
2019-04-26T00:31:33.997Z,12.19
2019-04-26T00:32:33.984Z,12.16
2019-04-26T00:33:33.987Z,12.07
2019-04-26T00:34:33.956Z,12.13
2019-04-26T00:35:46.624Z,12.13
2019-04-26T00:36:34.938Z,12.05
2019-04-26T00:37:33.972Z,12.13
2019-04-26T00:38:33.911Z,12.10
2019-04-26T00:39:33.905Z,12.10
2019-04-26T00:40:33.888Z,12.12
2019-04-26T00:41:33.880Z,12.12
2019-04-26T00:42:33.892Z,12.12
2019-04-26T00:43:33.864Z,11.99
2019-04-26T00:44:33.854Z,12.10
2019-04-26T00:45:33.861Z,12.09
2019-04-26T00:46:33.831Z,12.01
2019-04-26T00:47:33.845Z,12.12
2019-04-26T00:48:33.802Z,12.02
2019-04-26T00:49:43.617Z,11.98
2019-04-26T00:50:34.806Z,12.10
2019-04-26T00:51:33.796Z,12.04
2019-04-26T00:52:33.821Z,11.99
2019-04-26T00:53:33.806Z,12.14
2019-04-26T00:54:33.753Z,11.98
2019-04-26T00:55:33.736Z,12.07
2019-04-26T00:56:33.728Z,11.95
2019-04-26T00:57:33.811Z,12.01
2019-04-26T00:58:33.796Z,11.96
2019-04-26T00:59:33.697Z,11.95
2019-04-26T01:00:33.689Z,12.01
2019-04-26T01:01:33.661Z,12.09
2019-04-26T01:02:33.670Z,11.99
2019-04-26T01:03:33.640Z,11.99
2019-04-26T01:04:33.631Z,12.02
2019-04-26T01:05:33.616Z,12.02
2019-04-26T01:06:33.612Z,11.96
2019-04-26T01:07:33.595Z,12.05
2019-04-26T01:08:33.608Z,11.96
2019-04-26T01:09:33.573Z,12.02
2019-04-26T01:10:33.592Z,12.09
2019-04-26T01:11:33.554Z,12.01
2019-04-26T01:12:33.563Z,12.04
2019-04-26T01:13:33.533Z,12.04
2019-04-26T01:14:33.523Z,12.07
2019-04-26T01:15:33.508Z,12.04
2019-04-26T01:16:33.529Z,12.01
2019-04-26T01:17:33.488Z,11.99
2019-04-26T01:18:33.477Z,12.09
2019-04-26T01:19:33.471Z,11.99
2019-04-26T01:20:33.453Z,11.94
2019-04-26T01:21:33.444Z,11.90
2019-04-26T01:22:33.454Z,11.88
2019-04-26T01:23:33.438Z,11.82
2019-04-26T01:24:33.412Z,11.88
2019-04-26T01:25:33.404Z,11.91
2019-04-26T01:26:33.391Z,11.96
2019-04-26T01:27:33.405Z,11.86
2019-04-26T01:28:33.370Z,11.90
2019-04-26T01:29:33.362Z,11.91
2019-04-26T01:30:33.377Z,11.88
2019-04-26T01:31:33.340Z,12.01
2019-04-26T01:32:33.389Z,11.91
2019-04-26T01:33:33.364Z,11.85
2019-04-26T01:34:33.314Z,11.91
2019-04-26T01:35:33.313Z,11.86
2019-04-26T01:36:33.286Z,11.79
2019-04-26T01:37:33.278Z,11.90
2019-04-26T01:38:33.273Z,11.90
2019-04-26T01:39:33.265Z,11.90
2019-04-26T01:40:33.252Z,11.99
2019-04-26T01:41:33.250Z,11.95
2019-04-26T01:42:33.220Z,11.90
2019-04-26T01:43:33.206Z,11.94
2019-04-26T01:44:33.213Z,11.94
2019-04-26T01:45:33.190Z,11.83
2019-04-26T01:46:33.193Z,11.80
2019-04-26T01:47:33.170Z,11.78
2019-04-26T01:48:33.175Z,11.90
2019-04-26T01:49:33.143Z,11.83
2019-04-26T01:50:33.129Z,11.94
2019-04-26T01:51:33.149Z,11.95
2019-04-26T01:52:33.105Z,11.96
2019-04-26T01:53:33.098Z,11.96
2019-04-26T01:54:33.088Z,11.99
2019-04-26T01:55:33.079Z,11.83
2019-04-26T01:56:33.087Z,11.86
2019-04-26T01:57:33.071Z,11.88
2019-04-26T01:58:33.047Z,11.88
2019-04-26T01:59:33.043Z,11.94
2019-04-26T02:00:33.048Z,11.86
2019-04-26T02:01:33.014Z,11.86
2019-04-26T02:02:33.000Z,11.83
2019-04-26T02:03:32.988Z,11.83
2019-04-26T02:04:32.995Z,11.82
2019-04-26T02:05:32.971Z,11.85
2019-04-26T02:06:35.168Z,11.82
2019-04-26T02:07:32.949Z,11.82
2019-04-26T02:08:32.937Z,11.79
2019-04-26T02:09:32.960Z,11.85
2019-04-26T02:10:32.911Z,11.83
2019-04-26T02:11:33.057Z,11.76
2019-04-26T02:12:33.100Z,11.76
2019-04-26T02:13:33.109Z,11.73
2019-04-26T02:14:33.339Z,11.65
2019-04-26T02:15:33.507Z,11.73
2019-04-26T02:16:33.323Z,11.69
2019-04-26T02:17:33.625Z,11.73
2019-04-26T02:18:33.567Z,11.73
2019-04-26T02:19:33.687Z,11.70
2019-04-26T02:20:33.913Z,11.65
2019-04-26T02:21:32.819Z,11.78
2019-04-26T02:22:32.776Z,11.62
2019-04-26T02:23:32.769Z,11.65
2019-04-26T02:24:32.763Z,11.67
2019-04-26T02:25:32.744Z,11.61
2019-04-26T02:26:32.735Z,11.73
2019-04-26T02:27:32.743Z,11.70
2019-04-26T02:28:32.715Z,11.52
2019-04-26T02:29:32.785Z,11.55
2019-04-26T02:30:34.655Z,11.49
2019-04-26T02:31:33.739Z,11.47
2019-04-26T02:32:34.420Z,11.47
2019-04-26T02:33:33.705Z,11.43
2019-04-26T02:34:33.789Z,11.40
2019-04-26T02:35:33.974Z,11.44
2019-04-26T02:36:55.168Z,11.43
2019-04-26T02:37:34.550Z,11.37
2019-04-26T02:38:33.457Z,11.39
2019-04-26T02:39:33.951Z,11.35
2019-04-26T02:40:33.118Z,11.40
2019-04-26T02:41:33.900Z,11.36
2019-04-26T02:42:34.302Z,11.35
2019-04-26T02:43:33.865Z,11.35
2019-04-26T02:44:34.575Z,11.25
2019-04-26T02:45:34.265Z,11.35
2019-04-26T02:46:34.359Z,11.28
2019-04-26T02:47:34.470Z,11.24
2019-04-26T02:48:34.273Z,11.29
2019-04-26T02:49:33.063Z,11.29
2019-04-26T02:50:33.304Z,11.19
2019-04-26T02:51:34.142Z,11.15
2019-04-26T02:52:33.874Z,11.03
2019-04-26T02:53:33.687Z,11.04
2019-04-26T02:54:33.439Z,11.11
2019-04-26T02:55:36.858Z,11.10
2019-04-26T02:56:34.151Z,11.09
2019-04-26T02:57:33.091Z,11.09
2019-04-26T02:58:35.171Z,11.09
2019-04-26T02:59:34.098Z,11.10
2019-04-26T03:00:33.892Z,11.06
2019-04-26T03:01:35.647Z,11.15
2019-04-26T03:02:34.559Z,11.04
2019-04-26T03:03:33.773Z,11.07
2019-04-26T03:04:34.156Z,11.04
2019-04-26T03:05:34.264Z,11.09
2019-04-26T03:06:34.419Z,11.07
2019-04-26T03:07:33.867Z,11.09
2019-04-26T03:08:33.926Z,11.07
2019-04-26T03:09:33.708Z,11.10
2019-04-26T03:10:34.601Z,11.09
2019-04-26T03:11:33.892Z,11.03
2019-04-26T03:12:33.880Z,11.06
2019-04-26T03:13:34.275Z,11.11
2019-04-26T03:14:33.041Z,11.03
2019-04-26T03:15:33.974Z,11.02
2019-04-26T03:16:33.381Z,10.97
2019-04-26T03:17:33.634Z,11.03
2019-04-26T03:18:35.189Z,10.96
2019-04-26T03:19:33.770Z,10.89
2019-04-26T03:20:33.277Z,10.85
2019-04-26T03:21:34.125Z,10.84
2019-04-26T03:22:34.894Z,10.81
2019-04-26T03:23:45.951Z,10.88
2019-04-26T03:24:35.079Z,10.84
2019-04-26T03:25:33.352Z,10.84
2019-04-26T03:26:33.668Z,10.74
2019-04-26T03:27:33.579Z,10.89
2019-04-26T03:28:34.502Z,10.73
2019-04-26T03:29:33.621Z,10.79
2019-04-26T03:30:33.417Z,10.73
2019-04-26T03:31:39.068Z,10.84
2019-04-26T03:32:39.072Z,10.74
2019-04-26T03:33:38.198Z,10.64
2019-04-26T03:34:38.851Z,10.60
2019-04-26T03:35:36.887Z,10.70
2019-04-26T03:36:37.061Z,10.61
2019-04-26T03:37:34.562Z,10.66
2019-04-26T03:38:33.836Z,10.66
2019-04-26T03:39:34.272Z,10.63
2019-04-26T03:40:33.819Z,10.66
2019-04-26T03:41:34.341Z,10.68
2019-04-26T03:42:34.334Z,10.67
2019-04-26T03:43:34.317Z,10.64
2019-04-26T03:44:33.058Z,10.67
2019-04-26T03:45:33.010Z,10.66
2019-04-26T03:46:33.556Z,10.73
2019-04-26T03:47:31.890Z,10.63
2019-04-26T03:48:31.859Z,10.68
2019-04-26T03:49:31.855Z,10.67
2019-04-26T03:50:31.847Z,10.76
2019-04-26T03:51:31.821Z,10.63
2019-04-26T03:52:31.831Z,10.66
2019-04-26T03:53:31.795Z,10.64
2019-04-26T03:54:31.807Z,10.73
2019-04-26T03:55:31.785Z,10.68
2019-04-26T03:56:31.788Z,10.68
2019-04-26T03:57:31.760Z,10.64
2019-04-26T03:58:31.751Z,10.67
2019-04-26T03:59:31.737Z,10.71
2019-04-26T04:00:31.742Z,10.68
2019-04-26T04:01:31.713Z,10.73
2019-04-26T04:02:31.724Z,10.66
2019-04-26T04:03:31.694Z,10.74
2019-04-26T04:04:31.704Z,10.63
2019-04-26T04:05:31.670Z,10.74
2019-04-26T04:06:31.663Z,10.70
2019-04-26T04:07:39.251Z,10.66
2019-04-26T04:08:32.661Z,10.76
2019-04-26T04:09:31.631Z,10.81
2019-04-26T04:10:31.613Z,10.76
2019-04-26T04:11:31.693Z,10.67
2019-04-26T04:12:31.595Z,10.78
2019-04-26T04:13:31.619Z,10.63
2019-04-26T04:14:31.576Z,10.67
2019-04-26T04:15:31.564Z,10.68
2019-04-26T04:16:31.581Z,10.70
2019-04-26T04:17:31.557Z,10.61
2019-04-26T04:18:31.528Z,10.63
2019-04-26T04:19:31.517Z,10.61
2019-04-26T04:20:31.508Z,10.59
2019-04-26T04:21:31.499Z,10.63
2019-04-26T04:22:31.519Z,10.68
2019-04-26T04:23:31.478Z,10.64
2019-04-26T04:24:31.466Z,10.68
2019-04-26T04:25:31.455Z,10.68
2019-04-26T04:26:31.468Z,10.70
2019-04-26T04:27:31.452Z,10.73
2019-04-26T04:28:31.448Z,10.73
2019-04-26T04:29:40.234Z,10.67
2019-04-26T04:30:32.398Z,10.68
2019-04-26T04:31:31.406Z,10.73
2019-04-26T04:32:31.375Z,10.68
2019-04-26T04:33:31.385Z,10.55
2019-04-26T04:34:31.358Z,10.56
2019-04-26T04:35:31.351Z,10.52
2019-04-26T04:36:31.339Z,10.47
2019-04-26T04:37:31.319Z,10.41
2019-04-26T04:38:31.338Z,10.42
2019-04-26T04:39:31.323Z,10.40
2019-04-26T04:40:31.292Z,10.48
2019-04-26T04:41:31.284Z,10.48
2019-04-26T04:42:31.283Z,10.41
2019-04-26T04:43:31.257Z,10.47
2019-04-26T04:44:31.246Z,10.47
2019-04-26T04:45:31.237Z,10.53
2019-04-26T04:46:31.231Z,10.51
2019-04-26T04:47:31.649Z,10.59
2019-04-26T04:48:31.211Z,10.52
2019-04-26T04:49:31.214Z,10.55
2019-04-26T04:50:31.190Z,10.61
2019-04-26T04:51:31.216Z,10.52
2019-04-26T04:52:31.173Z,10.60
2019-04-26T04:53:31.152Z,10.59
2019-04-26T04:54:31.134Z,10.51
2019-04-26T04:55:31.127Z,10.64
2019-04-26T04:56:31.120Z,10.60
2019-04-26T04:57:31.121Z,10.66
2019-04-26T04:58:31.101Z,10.66
2019-04-26T04:59:31.087Z,10.70
2019-04-26T05:00:31.098Z,10.61
2019-04-26T05:01:32.002Z,10.61
2019-04-26T05:02:31.375Z,10.59
2019-04-26T05:03:31.060Z,10.70
2019-04-26T05:04:31.027Z,10.64
2019-04-26T05:05:31.015Z,10.64
2019-04-26T05:06:31.022Z,10.63
2019-04-26T05:07:31.016Z,10.56
2019-04-26T05:08:30.987Z,10.66
2019-04-26T05:09:31.006Z,10.52
2019-04-26T05:10:30.967Z,10.63
2019-04-26T05:11:30.982Z,10.61
2019-04-26T05:12:30.944Z,10.68
2019-04-26T05:13:30.939Z,10.59
2019-04-26T05:14:30.954Z,10.60
2019-04-26T05:15:30.933Z,10.61
2019-04-26T05:16:33.075Z,10.56
2019-04-26T05:17:30.887Z,10.66
2019-04-26T05:18:30.906Z,10.64
2019-04-26T05:19:30.866Z,10.67
2019-04-26T05:20:30.857Z,10.67
2019-04-26T05:21:30.866Z,10.70
2019-04-26T05:22:30.829Z,10.74
2019-04-26T05:23:30.828Z,10.70
2019-04-26T05:24:30.855Z,10.82
2019-04-26T05:25:30.806Z,10.73
2019-04-26T05:26:30.792Z,10.67
2019-04-26T05:27:30.779Z,10.66
2019-04-26T05:28:30.796Z,10.74
2019-04-26T05:29:30.757Z,10.74
2019-04-26T05:30:30.752Z,10.74
2019-04-26T05:31:30.740Z,10.73
2019-04-26T05:32:30.727Z,10.84
2019-04-26T05:33:30.727Z,10.82
2019-04-26T05:34:30.737Z,10.89
2019-04-26T05:35:30.715Z,10.85
2019-04-26T05:36:30.683Z,10.97
2019-04-26T05:37:30.720Z,10.92
2019-04-26T05:38:30.665Z,10.94
2019-04-26T05:39:30.673Z,10.97
2019-04-26T05:40:30.645Z,11.00
2019-04-26T05:41:30.650Z,10.91
2019-04-26T05:42:30.623Z,10.97
2019-04-26T05:43:30.613Z,10.89
2019-04-26T05:44:30.638Z,10.81
2019-04-26T05:45:30.591Z,10.96
2019-04-26T05:46:30.577Z,10.92
2019-04-26T05:47:30.598Z,10.92
2019-04-26T05:48:30.554Z,11.00
2019-04-26T05:49:30.565Z,11.02
2019-04-26T05:50:30.540Z,11.06
2019-04-26T05:51:30.535Z,11.19
2019-04-26T05:52:30.535Z,11.17
2019-04-26T05:53:30.521Z,11.25
2019-04-26T05:54:30.502Z,11.36
2019-04-26T05:55:30.483Z,11.33
2019-04-26T05:56:30.494Z,11.37
2019-04-26T05:57:30.487Z,11.40
2019-04-26T05:58:30.443Z,11.54
2019-04-26T05:59:30.454Z,11.62
2019-04-26T06:00:30.455Z,11.67
2019-04-26T06:01:30.411Z,11.67
2019-04-26T06:02:30.409Z,11.75
2019-04-26T06:03:30.407Z,11.73
2019-04-26T06:04:30.392Z,11.80
2019-04-26T06:05:30.406Z,11.83
2019-04-26T06:06:30.358Z,12.01
2019-04-26T06:07:30.357Z,11.96
2019-04-26T06:08:31.441Z,11.95
2019-04-26T06:09:30.325Z,12.04
2019-04-26T06:10:30.331Z,12.05
2019-04-26T06:11:30.338Z,12.09
2019-04-26T06:12:30.301Z,12.12
2019-04-26T06:13:30.281Z,12.01
2019-04-26T06:14:30.297Z,11.96
2019-04-26T06:15:30.300Z,11.88
2019-04-26T06:16:30.271Z,11.78
2019-04-26T06:17:30.249Z,11.75
2019-04-26T06:18:30.248Z,11.76
2019-04-26T06:19:30.226Z,11.61
2019-04-26T06:20:30.232Z,11.57
2019-04-26T06:21:30.224Z,11.55
2019-04-26T06:22:30.192Z,11.46
2019-04-26T06:23:30.183Z,11.47
2019-04-26T06:24:30.172Z,11.42
2019-04-26T06:25:30.156Z,11.47
2019-04-26T06:26:30.150Z,11.46
2019-04-26T06:27:30.150Z,11.44
2019-04-26T06:28:30.134Z,11.43
2019-04-26T06:29:32.661Z,11.43
2019-04-26T06:30:30.096Z,11.46
2019-04-26T06:31:30.087Z,11.44
2019-04-26T06:32:30.140Z,11.46
2019-04-26T06:33:30.093Z,11.51
2019-04-26T06:34:30.061Z,11.42
2019-04-26T06:35:30.046Z,11.52
2019-04-26T06:36:30.036Z,11.49
2019-04-26T06:37:30.033Z,11.49
2019-04-26T06:38:30.047Z,11.42
2019-04-26T06:39:30.002Z,11.47
2019-04-26T06:40:41.525Z,11.40
2019-04-26T06:41:30.993Z,11.46
2019-04-26T06:42:29.981Z,11.44
2019-04-26T06:43:29.986Z,11.40
2019-04-26T06:44:29.981Z,11.46
2019-04-26T06:45:29.962Z,11.54
2019-04-26T06:46:29.920Z,11.39
2019-04-26T06:47:29.916Z,11.40
2019-04-26T06:48:29.904Z,11.40
2019-04-26T06:49:29.889Z,11.35
2019-04-26T06:50:29.910Z,11.40
2019-04-26T06:51:29.875Z,11.42
2019-04-26T06:52:29.867Z,11.43
2019-04-26T06:53:29.856Z,11.40
2019-04-26T06:54:29.848Z,11.40
2019-04-26T06:55:29.848Z,11.44
2019-04-26T06:56:29.839Z,11.37
2019-04-26T06:57:29.801Z,11.42
2019-04-26T06:58:29.799Z,11.42
2019-04-26T06:59:36.335Z,11.35
2019-04-26T07:00:30.792Z,11.44
2019-04-26T07:01:29.758Z,11.43
2019-04-26T07:02:29.771Z,11.43
2019-04-26T07:03:29.744Z,11.43
2019-04-26T07:04:29.735Z,11.40
2019-04-26T07:05:29.726Z,11.46
2019-04-26T07:06:35.190Z,11.51
2019-04-26T07:07:30.694Z,11.52
2019-04-26T07:08:29.688Z,11.54
2019-04-26T07:09:29.677Z,11.58
2019-04-26T07:10:29.667Z,11.67
2019-04-26T07:11:29.678Z,11.79
2019-04-26T07:12:29.651Z,11.72
2019-04-26T07:13:29.638Z,11.76
2019-04-26T07:14:29.617Z,11.82
2019-04-26T07:15:29.610Z,11.82
2019-04-26T07:16:29.611Z,11.90
2019-04-26T07:17:29.600Z,11.88
2019-04-26T07:18:29.579Z,11.88
2019-04-26T07:19:29.583Z,11.91
2019-04-26T07:20:29.570Z,11.85
2019-04-26T07:21:29.575Z,11.88
2019-04-26T07:22:35.514Z,11.86
2019-04-26T07:23:30.537Z,11.82
2019-04-26T07:24:29.510Z,11.85
2019-04-26T07:25:29.500Z,11.79
2019-04-26T07:26:29.509Z,11.91
2019-04-26T07:27:29.477Z,11.83
2019-04-26T07:28:29.501Z,11.86
2019-04-26T07:29:29.461Z,11.98
2019-04-26T07:30:29.538Z,11.99
2019-04-26T07:31:29.451Z,11.95
2019-04-26T07:32:29.428Z,12.10
2019-04-26T07:33:29.416Z,12.19
2019-04-26T07:34:29.409Z,12.10
2019-04-26T07:35:29.396Z,12.17
2019-04-26T07:36:29.441Z,12.23
2019-04-26T07:37:29.369Z,12.29
2019-04-26T07:38:29.408Z,12.42
2019-04-26T07:39:29.352Z,12.39
2019-04-26T07:40:29.341Z,12.38
2019-04-26T07:41:29.361Z,12.59
2019-04-26T07:42:29.334Z,12.67
2019-04-26T07:43:29.324Z,12.64
2019-04-26T07:44:29.300Z,12.70
2019-04-26T07:45:29.280Z,12.71
2019-04-26T07:46:29.299Z,12.87
2019-04-26T07:47:29.261Z,12.89
2019-04-26T07:48:29.254Z,12.92
2019-04-26T07:49:29.246Z,12.95
2019-04-26T07:50:29.231Z,13.03
2019-04-26T07:51:29.221Z,12.96
2019-04-26T07:52:29.254Z,13.04
2019-04-26T07:53:29.213Z,12.97
2019-04-26T07:54:29.214Z,12.93
2019-04-26T07:55:29.197Z,12.86
2019-04-26T07:56:29.171Z,12.82
2019-04-26T07:57:29.183Z,12.95
2019-04-26T07:58:29.149Z,12.92
2019-04-26T07:59:29.138Z,12.85
2019-04-26T08:00:29.117Z,12.78
2019-04-26T08:01:29.114Z,12.83
2019-04-26T08:02:29.123Z,12.86
2019-04-26T08:03:29.093Z,12.85
2019-04-26T08:04:29.594Z,12.75
2019-04-26T08:05:29.078Z,12.86
2019-04-26T08:06:29.059Z,12.85
2019-04-26T08:07:29.062Z,12.79
2019-04-26T08:08:29.043Z,12.89
2019-04-26T08:09:29.028Z,12.78
2019-04-26T08:10:29.019Z,12.79
2019-04-26T08:11:29.006Z,12.78
2019-04-26T08:12:29.021Z,12.71
2019-04-26T08:13:28.979Z,12.64
2019-04-26T08:14:28.972Z,12.75
2019-04-26T08:15:28.992Z,12.82
2019-04-26T08:16:28.949Z,12.72
2019-04-26T08:17:28.956Z,12.70
2019-04-26T08:18:28.928Z,12.67
2019-04-26T08:19:28.912Z,12.64
2019-04-26T08:20:32.041Z,12.59
2019-04-26T08:21:31.729Z,12.57
2019-04-26T08:22:32.367Z,12.60
2019-04-26T08:23:41.106Z,12.59
2019-04-26T08:24:29.878Z,12.67
2019-04-26T08:25:28.849Z,12.62
2019-04-26T08:26:28.842Z,12.71
2019-04-26T08:27:28.849Z,12.72
2019-04-26T08:28:28.841Z,12.82
2019-04-26T08:29:29.815Z,12.71
2019-04-26T08:30:28.796Z,12.67
2019-04-26T08:31:28.780Z,12.65
2019-04-26T08:32:32.198Z,12.72
2019-04-26T08:33:28.767Z,12.78
2019-04-26T08:34:33.492Z,12.79
2019-04-26T08:35:29.749Z,12.78
2019-04-26T08:36:28.776Z,12.86
2019-04-26T08:37:32.251Z,12.79
2019-04-26T08:38:28.749Z,12.71
2019-04-26T08:39:44.286Z,12.86
2019-04-26T08:40:31.235Z,12.86
2019-04-26T08:41:28.683Z,12.93
2019-04-26T08:42:28.666Z,12.87
2019-04-26T08:43:30.795Z,13.04
2019-04-26T08:44:28.663Z,13.04
2019-04-26T08:45:28.648Z,13.04
2019-04-26T08:46:32.338Z,13.22
2019-04-26T08:47:29.626Z,13.36
2019-04-26T08:48:29.351Z,13.29
2019-04-26T08:49:28.589Z,13.49
2019-04-26T08:50:28.577Z,13.55
2019-04-26T08:51:28.601Z,13.60
2019-04-26T08:52:28.559Z,13.67
2019-04-26T08:53:28.565Z,13.82
2019-04-26T08:54:28.536Z,13.85
2019-04-26T08:55:28.533Z,13.87
2019-04-26T08:56:28.513Z,13.95
2019-04-26T08:57:28.500Z,14.04
2019-04-26T08:58:28.515Z,14.17
2019-04-26T08:59:28.476Z,14.12
2019-04-26T09:00:28.473Z,14.17
2019-04-26T09:01:28.462Z,14.33
2019-04-26T09:02:28.454Z,14.32
2019-04-26T09:03:28.463Z,14.36
2019-04-26T09:04:28.436Z,14.40
2019-04-26T09:05:28.415Z,14.45
2019-04-26T09:06:28.405Z,14.36
2019-04-26T09:07:28.399Z,14.37
2019-04-26T09:08:28.388Z,14.36
2019-04-26T09:09:28.391Z,14.36
2019-04-26T09:10:28.366Z,14.43
2019-04-26T09:11:33.313Z,14.46
2019-04-26T09:12:29.355Z,14.24
2019-04-26T09:13:28.329Z,14.24
2019-04-26T09:14:28.360Z,14.20
2019-04-26T09:15:28.311Z,14.18
2019-04-26T09:16:28.294Z,14.21
2019-04-26T09:17:32.191Z,14.36
2019-04-26T09:18:42.082Z,14.52
2019-04-26T09:19:30.531Z,14.47
2019-04-26T09:20:29.880Z,14.50
2019-04-26T09:21:29.016Z,14.47
2019-04-26T09:22:28.232Z,14.65
2019-04-26T09:23:39.587Z,14.75
2019-04-26T09:24:29.230Z,14.84
2019-04-26T09:25:30.403Z,14.98
2019-04-26T09:26:29.310Z,14.99
2019-04-26T09:27:28.214Z,15.07
2019-04-26T09:28:28.164Z,15.23
2019-04-26T09:29:30.477Z,15.35
2019-04-26T09:30:34.437Z,15.46
2019-04-26T09:31:29.134Z,15.47
2019-04-26T09:32:29.369Z,15.59
2019-04-26T09:33:31.661Z,15.38
2019-04-26T09:34:29.119Z,15.29
2019-04-26T09:35:28.088Z,15.06
2019-04-26T09:36:28.083Z,15.02
2019-04-26T09:37:28.107Z,15.02
2019-04-26T09:38:28.062Z,14.96
2019-04-26T09:39:28.094Z,15.09
2019-04-26T09:40:28.060Z,15.09
2019-04-26T09:41:30.825Z,14.96
2019-04-26T09:42:28.013Z,14.94
2019-04-26T09:43:28.008Z,14.88
2019-04-26T09:44:27.998Z,14.57
2019-04-26T09:45:28.008Z,14.58
2019-04-26T09:46:27.975Z,14.62
2019-04-26T09:47:27.971Z,14.78
2019-04-26T09:48:27.953Z,14.86
2019-04-26T09:49:27.943Z,14.84
2019-04-26T09:50:27.971Z,14.99
2019-04-26T09:51:27.924Z,14.95
2019-04-26T09:52:27.912Z,15.03
2019-04-26T09:53:27.898Z,14.92
2019-04-26T09:54:27.893Z,14.77
2019-04-26T09:55:35.081Z,14.68
2019-04-26T09:56:28.871Z,14.68
2019-04-26T09:57:27.855Z,14.83
2019-04-26T09:58:30.820Z,14.50
2019-04-26T09:59:27.835Z,14.58
2019-04-26T10:00:27.862Z,14.55
2019-04-26T10:01:27.812Z,14.68
2019-04-26T10:02:29.539Z,14.77
2019-04-26T10:03:28.782Z,14.86
2019-04-26T10:04:27.781Z,14.89
2019-04-26T10:05:27.786Z,14.75
2019-04-26T10:06:29.722Z,14.36
2019-04-26T10:07:27.740Z,14.04
2019-04-26T10:08:27.744Z,14.07
2019-04-26T10:09:27.728Z,14.17
2019-04-26T10:10:31.099Z,14.27
2019-04-26T10:11:28.706Z,14.42
2019-04-26T10:12:27.692Z,14.58
2019-04-26T10:13:27.698Z,14.83
2019-04-26T10:14:27.667Z,14.80
2019-04-26T10:15:28.208Z,14.94
2019-04-26T10:16:27.653Z,15.03
2019-04-26T10:17:27.639Z,15.20
2019-04-26T10:18:27.631Z,15.28
2019-04-26T10:19:28.085Z,15.32
2019-04-26T10:20:27.620Z,15.38
2019-04-26T10:21:27.594Z,15.60
2019-04-26T10:22:27.639Z,15.68
2019-04-26T10:23:27.599Z,15.82
2019-04-26T10:24:27.562Z,15.92
2019-04-26T10:25:27.576Z,16.02
2019-04-26T10:26:28.039Z,16.38
2019-04-26T10:27:27.527Z,16.60
2019-04-26T10:28:27.528Z,17.01
2019-04-26T10:29:27.509Z,17.37
2019-04-26T10:30:27.499Z,17.71
2019-04-26T10:31:27.514Z,17.77
2019-04-26T10:32:27.937Z,17.99
2019-04-26T10:33:27.466Z,18.58
2019-04-26T10:34:27.454Z,18.90
2019-04-26T10:35:27.441Z,19.04
2019-04-26T10:36:30.178Z,19.13
2019-04-26T10:37:38.968Z,19.14
2019-04-26T10:38:28.406Z,19.10
2019-04-26T10:39:28.495Z,19.33
2019-04-26T10:40:35.433Z,19.63
2019-04-26T10:41:28.425Z,19.48
2019-04-26T10:42:27.369Z,19.29
2019-04-26T10:43:29.394Z,19.23
2019-04-26T10:44:27.347Z,19.36
2019-04-26T10:45:27.331Z,19.36
2019-04-26T10:46:28.295Z,19.36
2019-04-26T10:47:27.314Z,19.16
2019-04-26T10:48:27.304Z,18.94
2019-04-26T10:49:27.294Z,18.91
2019-04-26T10:50:28.864Z,18.95
2019-04-26T10:51:28.290Z,19.07
2019-04-26T10:52:27.256Z,19.10
2019-04-26T10:53:30.264Z,19.08
2019-04-26T10:54:27.240Z,18.81
2019-04-26T10:55:27.226Z,18.26
2019-04-26T10:56:27.364Z,17.87
2019-04-26T10:57:27.203Z,17.96
2019-04-26T10:58:27.195Z,18.05
2019-04-26T10:59:27.191Z,18.07
2019-04-26T11:00:27.174Z,18.25
2019-04-26T11:01:27.191Z,18.07
2019-04-26T11:02:27.154Z,17.87
2019-04-26T11:03:27.145Z,17.54
2019-04-26T11:04:27.131Z,17.51
2019-04-26T11:05:27.116Z,17.44
2019-04-26T11:06:27.847Z,17.38
2019-04-26T11:07:27.098Z,17.36
2019-04-26T11:08:27.093Z,17.26
2019-04-26T11:09:27.096Z,17.21
2019-04-26T11:10:27.062Z,17.25
2019-04-26T11:11:27.085Z,17.33
2019-04-26T11:12:27.044Z,17.58
2019-04-26T11:13:27.095Z,17.58
2019-04-26T11:14:27.028Z,17.51
2019-04-26T11:15:29.139Z,17.77
2019-04-26T11:16:27.009Z,17.95
2019-04-26T11:17:27.008Z,18.10
2019-04-26T11:18:28.345Z,18.10
2019-04-26T11:19:26.968Z,17.97
2019-04-26T11:20:26.963Z,18.14
2019-04-26T11:21:26.953Z,18.18
2019-04-26T11:22:29.349Z,17.79
2019-04-26T11:23:26.926Z,17.78
2019-04-26T11:24:26.921Z,17.90
2019-04-26T11:25:28.239Z,18.00
2019-04-26T11:26:26.953Z,18.05
2019-04-26T11:27:26.904Z,18.03
2019-04-26T11:28:26.869Z,18.05
2019-04-26T11:29:28.736Z,17.70
2019-04-26T11:30:26.844Z,17.63
2019-04-26T11:31:27.709Z,17.96
2019-04-26T11:32:26.855Z,18.39
2019-04-26T11:33:26.822Z,18.73
2019-04-26T11:34:26.822Z,19.07
2019-04-26T11:35:29.237Z,19.31
2019-04-26T11:36:27.784Z,19.65
2019-04-26T11:37:26.819Z,19.83
2019-04-26T11:38:31.111Z,19.88
2019-04-26T11:39:28.207Z,19.84
2019-04-26T11:40:26.740Z,19.91
2019-04-26T11:41:26.770Z,19.25
2019-04-26T11:42:26.759Z,19.26
2019-04-26T11:43:26.782Z,19.40
2019-04-26T11:44:27.543Z,19.21
2019-04-26T11:45:26.707Z,18.78
2019-04-26T11:46:29.126Z,18.76
2019-04-26T11:47:26.700Z,18.91
2019-04-26T11:48:29.167Z,18.98
2019-04-26T11:49:26.638Z,18.73
2019-04-26T11:50:26.627Z,18.84
2019-04-26T11:51:27.597Z,18.75
2019-04-26T11:52:26.688Z,18.80
2019-04-26T11:53:26.602Z,18.84
2019-04-26T11:54:26.592Z,18.98
2019-04-26T11:55:29.967Z,19.06
2019-04-26T11:56:26.573Z,18.99
2019-04-26T11:57:26.573Z,18.75
2019-04-26T11:58:26.561Z,18.72
2019-04-26T11:59:27.070Z,18.58
2019-04-26T12:00:27.618Z,18.62
2019-04-26T12:01:26.510Z,17.87
2019-04-26T12:02:26.520Z,17.81
2019-04-26T12:03:26.490Z,17.92
2019-04-26T12:04:26.485Z,17.96
2019-04-26T12:05:26.474Z,17.72
2019-04-26T12:06:26.466Z,17.58
2019-04-26T12:07:26.477Z,17.58
2019-04-26T12:08:26.452Z,17.66
2019-04-26T12:09:26.421Z,17.41
2019-04-26T12:10:27.195Z,17.56
2019-04-26T12:11:34.123Z,17.52
2019-04-26T12:12:27.423Z,17.71
2019-04-26T12:13:26.723Z,17.81
2019-04-26T12:14:29.466Z,17.97
2019-04-26T12:15:30.430Z,17.75
2019-04-26T12:16:26.351Z,17.23
2019-04-26T12:17:27.148Z,16.88
2019-04-26T12:18:26.376Z,16.94
2019-04-26T12:19:26.327Z,16.82
2019-04-26T12:20:26.775Z,16.70
2019-04-26T12:21:26.303Z,16.78
2019-04-26T12:22:26.305Z,16.52
2019-04-26T12:23:26.294Z,16.56
2019-04-26T12:24:29.666Z,16.71
2019-04-26T12:25:27.262Z,16.71
2019-04-26T12:26:26.247Z,16.89
2019-04-26T12:27:26.694Z,16.83
2019-04-26T12:28:26.241Z,17.03
2019-04-26T12:29:26.207Z,17.23
2019-04-26T12:30:26.896Z,17.46
2019-04-26T12:31:26.211Z,17.59
2019-04-26T12:32:26.178Z,17.72
2019-04-26T12:33:26.189Z,17.93
2019-04-26T12:34:26.153Z,18.25
2019-04-26T12:35:26.145Z,18.42
2019-04-26T12:36:26.138Z,18.65
2019-04-26T12:37:26.129Z,18.78
2019-04-26T12:38:28.452Z,18.63
2019-04-26T12:39:26.106Z,18.39
2019-04-26T12:40:26.139Z,18.75
2019-04-26T12:41:39.939Z,18.91
2019-04-26T12:42:27.066Z,19.23
2019-04-26T12:43:26.243Z,19.21
2019-04-26T12:44:26.054Z,18.84
2019-04-26T12:45:26.042Z,18.70
2019-04-26T12:46:27.180Z,18.27
2019-04-26T12:47:26.017Z,17.99
2019-04-26T12:48:26.030Z,18.33
2019-04-26T12:49:26.006Z,18.32
2019-04-26T12:50:29.569Z,18.54
2019-04-26T12:51:26.980Z,18.72
2019-04-26T12:52:25.967Z,19.00